Gran Canaria, Spain
Current Conditions -  °F | °C
As of 4:30 PM on Sunday 21 Dec 2014 (Local Time) from GCLP Reporting Station
Scattered Clouds Scattered Clouds  
Wind Chill: 20°   Ceiling: Unl
Heat Index: 20°   Visibility: 6mi
Dew Point: 14°   Wind: 9mph
Humidity: 68%   Direction: 20°NNE
Pressure: 30.24"   Gusts: NA
Location:  28.14°N, 15.43°W
Report Text: GCLP 211630Z 02008KT 340V050 9999 SCT027 20/14 Q1024 NOSIG
Loading
Personal Weather Stations






























Interactive Weather Map New forecast layout! Learn more

10-Day Weather Forecast

Advertisements
Track Severe Weather on mobile